sensor_id;sensor_type;location;lat;lon;timestamp;P1;durP1;ratioP1;P2;durP2;ratioP2
34196;SDS011;36594;45.192;5.722;2023-04-01T00:02:02;0.60;;;0.60;;
34196;SDS011;36594;45.192;5.722;2023-04-01T00:04:50;0.60;;;0.50;;
34196;SDS011;36594;45.192;5.722;2023-04-01T00:07:39;0.50;;;0.50;;
34196;SDS011;36594;45.192;5.722;2023-04-01T00:10:28;0.73;;;0.53;;
34196;SDS011;36594;45.192;5.722;2023-04-01T00:13:17;0.60;;;0.60;;
34196;SDS011;36594;45.192;5.722;2023-04-01T00:16:06;0.50;;;0.50;;
34196;SDS011;36594;45.192;5.722;2023-04-01T00:18:55;0.85;;;0.50;;
34196;SDS011;36594;45.192;5.722;2023-04-01T00:21:43;0.70;;;0.70;;
34196;SDS011;36594;45.192;5.722;2023-04-01T00:24:33;1.07;;;0.60;;
34196;SDS011;36594;45.192;5.722;2023-04-01T00:27:21;0.77;;;0.60;;
34196;SDS011;36594;45.192;5.722;2023-04-01T00:30:10;0.70;;;0.70;;
34196;SDS011;36594;45.192;5.722;2023-04-01T00:32:59;1.20;;;0.70;;
34196;SDS011;36594;45.192;5.722;2023-04-01T00:35:47;0.50;;;0.50;;
34196;SDS011;36594;45.192;5.722;2023-04-01T00:38:36;0.60;;;0.60;;
34196;SDS011;36594;45.192;5.722;2023-04-01T00:41:25;0.42;;;0.42;;
34196;SDS011;36594;45.192;5.722;2023-04-01T00:44:16;1.20;;;0.70;;
34196;SDS011;36594;45.192;5.722;2023-04-01T00:47:05;1.50;;;0.50;;
34196;SDS011;36594;45.192;5.722;2023-04-01T00:49:53;0.67;;;0.67;;
34196;SDS011;36594;45.192;5.722;2023-04-01T00:52:42;0.55;;;0.55;;
34196;SDS011;36594;45.192;5.722;2023-04-01T00:55:32;0.75;;;0.75;;
34196;SDS011;36594;45.192;5.722;2023-04-01T00:58:23;0.62;;;0.62;;
34196;SDS011;36594;45.192;5.722;2023-04-01T01:01:14;0.47;;;0.47;;
34196;SDS011;36594;45.192;5.722;2023-04-01T01:04:03;1.00;;;0.80;;
34196;SDS011;36594;45.192;5.722;2023-04-01T01:10:05;0.70;;;0.70;;
34196;SDS011;36594;45.192;5.722;2023-04-01T01:13:10;0.80;;;0.70;;
34196;SDS011;36594;45.192;5.722;2023-04-01T01:16:06;0.55;;;0.55;;
34196;SDS011;36594;45.192;5.722;2023-04-01T01:19:04;0.50;;;0.50;;
34196;SDS011;36594;45.192;5.722;2023-04-01T01:22:08;0.50;;;0.50;;
34196;SDS011;36594;45.192;5.722;2023-04-01T01:25:32;0.95;;;0.57;;
34196;SDS011;36594;45.192;5.722;2023-04-01T01:31:37;0.40;;;0.40;;
34196;SDS011;36594;45.192;5.722;2023-04-01T01:34:36;0.60;;;0.60;;
34196;SDS011;36594;45.192;5.722;2023-04-01T01:37:28;0.80;;;0.60;;
34196;SDS011;36594;45.192;5.722;2023-04-01T01:40:19;0.85;;;0.40;;
34196;SDS011;36594;45.192;5.722;2023-04-01T01:43:10;0.60;;;0.60;;
34196;SDS011;36594;45.192;5.722;2023-04-01T01:46:01;0.60;;;0.60;;
34196;SDS011;36594;45.192;5.722;2023-04-01T01:48:52;0.70;;;0.55;;
34196;SDS011;36594;45.192;5.722;2023-04-01T01:51:42;0.80;;;0.50;;
34196;SDS011;36594;45.192;5.722;2023-04-01T01:54:32;0.57;;;0.57;;
34196;SDS011;36594;45.192;5.722;2023-04-01T01:57:26;0.60;;;0.60;;
34196;SDS011;36594;45.192;5.722;2023-04-01T02:00:19;0.55;;;0.55;;
34196;SDS011;36594;45.192;5.722;2023-04-01T02:03:10;0.70;;;0.60;;
34196;SDS011;36594;45.192;5.722;2023-04-01T02:06:01;0.50;;;0.50;;
34196;SDS011;36594;45.192;5.722;2023-04-01T02:08:54;0.60;;;0.50;;
34196;SDS011;36594;45.192;5.722;2023-04-01T02:11:48;0.47;;;0.47;;
34196;SDS011;36594;45.192;5.722;2023-04-01T02:17:35;0.70;;;0.60;;
34196;SDS011;36594;45.192;5.722;2023-04-01T02:20:27;0.63;;;0.63;;
34196;SDS011;36594;45.192;5.722;2023-04-01T02:23:17;1.60;;;0.40;;
34196;SDS011;36594;45.192;5.722;2023-04-01T02:26:07;0.53;;;0.40;;
34196;SDS011;36594;45.192;5.722;2023-04-01T02:28:58;1.30;;;0.60;;
34196;SDS011;36594;45.192;5.722;2023-04-01T02:31:49;0.47;;;0.47;;
34196;SDS011;36594;45.192;5.722;2023-04-01T02:34:39;1.30;;;0.53;;
34196;SDS011;36594;45.192;5.722;2023-04-01T02:37:28;1.50;;;0.50;;
34196;SDS011;36594;45.192;5.722;2023-04-01T02:40:16;0.50;;;0.50;;
34196;SDS011;36594;45.192;5.722;2023-04-01T02:43:05;0.87;;;0.37;;
34196;SDS011;36594;45.192;5.722;2023-04-01T02:45:53;0.50;;;0.50;;
34196;SDS011;36594;45.192;5.722;2023-04-01T02:48:42;0.50;;;0.50;;
34196;SDS011;36594;45.192;5.722;2023-04-01T02:51:31;0.60;;;0.60;;
34196;SDS011;36594;45.192;5.722;2023-04-01T02:54:20;0.40;;;0.40;;
34196;SDS011;36594;45.192;5.722;2023-04-01T02:57:09;0.68;;;0.68;;
34196;SDS011;36594;45.192;5.722;2023-04-01T02:59:57;0.60;;;0.60;;
34196;SDS011;36594;45.192;5.722;2023-04-01T03:02:46;0.65;;;0.65;;
34196;SDS011;36594;45.192;5.722;2023-04-01T03:05:34;0.40;;;0.40;;
34196;SDS011;36594;45.192;5.722;2023-04-01T03:08:23;0.55;;;0.55;;
34196;SDS011;36594;45.192;5.722;2023-04-01T03:11:12;0.53;;;0.53;;
34196;SDS011;36594;45.192;5.722;2023-04-01T03:14:01;1.50;;;0.35;;
34196;SDS011;36594;45.192;5.722;2023-04-01T03:16:50;0.35;;;0.35;;
34196;SDS011;36594;45.192;5.722;2023-04-01T03:19:38;0.68;;;0.68;;
34196;SDS011;36594;45.192;5.722;2023-04-01T03:22:26;2.00;;;0.50;;
34196;SDS011;36594;45.192;5.722;2023-04-01T03:25:15;0.80;;;0.62;;
34196;SDS011;36594;45.192;5.722;2023-04-01T03:28:03;0.70;;;0.50;;
34196;SDS011;36594;45.192;5.722;2023-04-01T03:30:51;0.40;;;0.40;;
34196;SDS011;36594;45.192;5.722;2023-04-01T03:33:40;3.30;;;0.60;;
34196;SDS011;36594;45.192;5.722;2023-04-01T03:36:29;1.20;;;0.70;;
34196;SDS011;36594;45.192;5.722;2023-04-01T03:39:17;0.60;;;0.60;;
34196;SDS011;36594;45.192;5.722;2023-04-01T03:42:06;0.80;;;0.60;;
34196;SDS011;36594;45.192;5.722;2023-04-01T03:44:54;1.37;;;0.62;;
34196;SDS011;36594;45.192;5.722;2023-04-01T03:47:43;0.62;;;0.62;;
34196;SDS011;36594;45.192;5.722;2023-04-01T03:50:32;1.22;;;0.50;;
34196;SDS011;36594;45.192;5.722;2023-04-01T03:53:22;1.45;;;0.78;;
34196;SDS011;36594;45.192;5.722;2023-04-01T03:56:11;0.90;;;0.60;;
34196;SDS011;36594;45.192;5.722;2023-04-01T03:59:04;1.20;;;0.73;;
34196;SDS011;36594;45.192;5.722;2023-04-01T04:01:53;0.93;;;0.50;;
34196;SDS011;36594;45.192;5.722;2023-04-01T04:04:42;1.30;;;0.55;;
34196;SDS011;36594;45.192;5.722;2023-04-01T04:07:33;0.80;;;0.57;;
34196;SDS011;36594;45.192;5.722;2023-04-01T04:10:23;0.72;;;0.72;;
34196;SDS011;36594;45.192;5.722;2023-04-01T04:13:12;2.75;;;0.70;;
34196;SDS011;36594;45.192;5.722;2023-04-01T04:16:03;0.43;;;0.43;;
34196;SDS011;36594;45.192;5.722;2023-04-01T04:18:54;0.80;;;0.70;;
34196;SDS011;36594;45.192;5.722;2023-04-01T04:21:42;0.78;;;0.50;;
34196;SDS011;36594;45.192;5.722;2023-04-01T04:24:31;0.50;;;0.37;;
34196;SDS011;36594;45.192;5.722;2023-04-01T04:27:23;1.50;;;0.47;;
34196;SDS011;36594;45.192;5.722;2023-04-01T04:30:16;0.50;;;0.50;;
34196;SDS011;36594;45.192;5.722;2023-04-01T04:33:04;0.57;;;0.57;;
34196;SDS011;36594;45.192;5.722;2023-04-01T04:35:59;0.90;;;0.60;;
34196;SDS011;36594;45.192;5.722;2023-04-01T04:38:44;0.98;;;0.70;;
34196;SDS011;36594;45.192;5.722;2023-04-01T04:41:33;0.60;;;0.60;;
34196;SDS011;36594;45.192;5.722;2023-04-01T04:44:25;0.50;;;0.42;;
34196;SDS011;36594;45.192;5.722;2023-04-01T04:47:14;0.50;;;0.50;;
34196;SDS011;36594;45.192;5.722;2023-04-01T04:50:03;0.80;;;0.60;;
34196;SDS011;36594;45.192;5.722;2023-04-01T04:52:52;0.60;;;0.60;;
34196;SDS011;36594;45.192;5.722;2023-04-01T04:55:48;0.37;;;0.37;;
34196;SDS011;36594;45.192;5.722;2023-04-01T04:58:39;1.52;;;0.45;;
34196;SDS011;36594;45.192;5.722;2023-04-01T05:01:29;0.62;;;0.40;;
34196;SDS011;36594;45.192;5.722;2023-04-01T05:04:17;0.42;;;0.42;;
34196;SDS011;36594;45.192;5.722;2023-04-01T05:07:06;0.40;;;0.40;;
34196;SDS011;36594;45.192;5.722;2023-04-01T05:09:54;0.40;;;0.37;;
34196;SDS011;36594;45.192;5.722;2023-04-01T05:12:43;4.10;;;0.90;;
34196;SDS011;36594;45.192;5.722;2023-04-01T05:15:33;1.60;;;0.47;;
34196;SDS011;36594;45.192;5.722;2023-04-01T05:18:22;0.50;;;0.50;;
34196;SDS011;36594;45.192;5.722;2023-04-01T05:21:11;0.33;;;0.33;;
34196;SDS011;36594;45.192;5.722;2023-04-01T05:24:02;1.00;;;0.50;;
34196;SDS011;36594;45.192;5.722;2023-04-01T05:26:51;0.95;;;0.60;;
34196;SDS011;36594;45.192;5.722;2023-04-01T05:29:40;1.57;;;0.55;;
34196;SDS011;36594;45.192;5.722;2023-04-01T05:32:30;2.40;;;0.60;;
34196;SDS011;36594;45.192;5.722;2023-04-01T05:35:20;0.90;;;0.40;;
34196;SDS011;36594;45.192;5.722;2023-04-01T05:38:08;0.42;;;0.42;;
34196;SDS011;36594;45.192;5.722;2023-04-01T05:41:00;1.50;;;0.60;;
34196;SDS011;36594;45.192;5.722;2023-04-01T05:43:50;0.60;;;0.50;;
34196;SDS011;36594;45.192;5.722;2023-04-01T05:46:49;1.42;;;0.42;;
34196;SDS011;36594;45.192;5.722;2023-04-01T05:49:39;1.70;;;0.65;;
34196;SDS011;36594;45.192;5.722;2023-04-01T05:52:27;0.30;;;0.30;;
34196;SDS011;36594;45.192;5.722;2023-04-01T05:55:16;0.60;;;0.60;;
34196;SDS011;36594;45.192;5.722;2023-04-01T05:58:05;0.30;;;0.30;;
34196;SDS011;36594;45.192;5.722;2023-04-01T06:01:00;1.77;;;0.40;;
34196;SDS011;36594;45.192;5.722;2023-04-01T06:03:45;1.60;;;0.50;;
34196;SDS011;36594;45.192;5.722;2023-04-01T06:06:34;0.65;;;0.50;;
34196;SDS011;36594;45.192;5.722;2023-04-01T06:09:27;0.70;;;0.40;;
34196;SDS011;36594;45.192;5.722;2023-04-01T06:15:31;1.15;;;0.55;;
34196;SDS011;36594;45.192;5.722;2023-04-01T06:18:33;0.90;;;0.50;;
34196;SDS011;36594;45.192;5.722;2023-04-01T06:27:57;1.45;;;0.40;;
34196;SDS011;36594;45.192;5.722;2023-04-01T06:34:32;0.30;;;0.30;;
34196;SDS011;36594;45.192;5.722;2023-04-01T06:37:33;1.82;;;0.50;;
34196;SDS011;36594;45.192;5.722;2023-04-01T06:40:25;0.60;;;0.40;;
34196;SDS011;36594;45.192;5.722;2023-04-01T06:43:38;0.30;;;0.30;;
34196;SDS011;36594;45.192;5.722;2023-04-01T06:46:34;0.47;;;0.47;;
34196;SDS011;36594;45.192;5.722;2023-04-01T06:49:44;0.50;;;0.50;;
34196;SDS011;36594;45.192;5.722;2023-04-01T06:56:27;0.40;;;0.40;;
34196;SDS011;36594;45.192;5.722;2023-04-01T06:59:25;0.33;;;0.33;;
34196;SDS011;36594;45.192;5.722;2023-04-01T07:02:20;0.50;;;0.42;;
34196;SDS011;36594;45.192;5.722;2023-04-01T07:05:10;1.50;;;0.50;;
34196;SDS011;36594;45.192;5.722;2023-04-01T07:08:02;0.53;;;0.53;;
34196;SDS011;36594;45.192;5.722;2023-04-01T07:10:54;3.50;;;0.50;;
34196;SDS011;36594;45.192;5.722;2023-04-01T07:13:55;2.25;;;0.50;;
34196;SDS011;36594;45.192;5.722;2023-04-01T07:16:51;0.70;;;0.70;;
34196;SDS011;36594;45.192;5.722;2023-04-01T07:19:45;0.45;;;0.45;;
34196;SDS011;36594;45.192;5.722;2023-04-01T07:22:49;0.70;;;0.60;;
34196;SDS011;36594;45.192;5.722;2023-04-01T07:25:46;0.47;;;0.47;;
34196;SDS011;36594;45.192;5.722;2023-04-01T07:28:39;0.50;;;0.50;;
34196;SDS011;36594;45.192;5.722;2023-04-01T07:31:39;0.70;;;0.30;;
34196;SDS011;36594;45.192;5.722;2023-04-01T07:34:36;0.50;;;0.50;;
34196;SDS011;36594;45.192;5.722;2023-04-01T07:37:28;1.05;;;0.47;;
34196;SDS011;36594;45.192;5.722;2023-04-01T07:40:46;0.37;;;0.37;;
34196;SDS011;36594;45.192;5.722;2023-04-01T07:46:56;0.20;;;0.20;;
34196;SDS011;36594;45.192;5.722;2023-04-01T07:50:00;0.70;;;0.40;;
34196;SDS011;36594;45.192;5.722;2023-04-01T07:59:02;1.60;;;0.50;;
34196;SDS011;36594;45.192;5.722;2023-04-01T08:08:22;1.62;;;0.40;;
34196;SDS011;36594;45.192;5.722;2023-04-01T08:11:35;2.00;;;0.53;;
34196;SDS011;36594;45.192;5.722;2023-04-01T08:15:07;0.57;;;0.47;;
34196;SDS011;36594;45.192;5.722;2023-04-01T08:21:33;0.80;;;0.70;;
34196;SDS011;36594;45.192;5.722;2023-04-01T08:24:35;0.50;;;0.50;;
34196;SDS011;36594;45.192;5.722;2023-04-01T08:27:39;1.00;;;0.70;;
34196;SDS011;36594;45.192;5.722;2023-04-01T08:30:40;1.00;;;0.90;;
34196;SDS011;36594;45.192;5.722;2023-04-01T08:33:31;2.30;;;0.60;;
34196;SDS011;36594;45.192;5.722;2023-04-01T08:36:33;0.70;;;0.65;;
34196;SDS011;36594;45.192;5.722;2023-04-01T08:42:26;1.15;;;0.70;;
34196;SDS011;36594;45.192;5.722;2023-04-01T09:04:51;3.40;;;0.90;;
34196;SDS011;36594;45.192;5.722;2023-04-01T09:11:04;2.80;;;0.80;;
34196;SDS011;36594;45.192;5.722;2023-04-01T09:20:55;2.40;;;0.80;;
34196;SDS011;36594;45.192;5.722;2023-04-01T09:23:54;1.05;;;0.70;;
34196;SDS011;36594;45.192;5.722;2023-04-01T09:33:04;1.15;;;1.05;;
34196;SDS011;36594;45.192;5.722;2023-04-01T09:36:03;1.07;;;1.00;;
34196;SDS011;36594;45.192;5.722;2023-04-01T09:45:37;1.37;;;1.00;;
34196;SDS011;36594;45.192;5.722;2023-04-01T09:51:40;0.98;;;0.98;;
34196;SDS011;36594;45.192;5.722;2023-04-01T09:54:36;1.00;;;0.70;;
34196;SDS011;36594;45.192;5.722;2023-04-01T10:07:25;1.90;;;1.25;;
34196;SDS011;36594;45.192;5.722;2023-04-01T10:10:31;2.12;;;1.40;;
34196;SDS011;36594;45.192;5.722;2023-04-01T10:13:30;1.37;;;1.25;;
34196;SDS011;36594;45.192;5.722;2023-04-01T10:22:56;1.40;;;1.30;;
34196;SDS011;36594;45.192;5.722;2023-04-01T10:54:40;1.82;;;1.40;;
34196;SDS011;36594;45.192;5.722;2023-04-01T11:01:22;1.70;;;1.60;;
34196;SDS011;36594;45.192;5.722;2023-04-01T11:08:04;1.67;;;1.50;;
34196;SDS011;36594;45.192;5.722;2023-04-01T11:17:42;3.65;;;1.60;;
34196;SDS011;36594;45.192;5.722;2023-04-01T11:20:41;3.45;;;1.30;;
34196;SDS011;36594;45.192;5.722;2023-04-01T11:27:15;2.02;;;1.40;;
34196;SDS011;36594;45.192;5.722;2023-04-01T11:30:08;3.27;;;1.40;;
34196;SDS011;36594;45.192;5.722;2023-04-01T11:33:08;1.62;;;1.52;;
34196;SDS011;36594;45.192;5.722;2023-04-01T11:36:20;1.70;;;1.60;;
34196;SDS011;36594;45.192;5.722;2023-04-01T11:39:37;2.50;;;1.35;;
34196;SDS011;36594;45.192;5.722;2023-04-01T11:42:34;1.70;;;1.60;;
34196;SDS011;36594;45.192;5.722;2023-04-01T11:49:21;1.92;;;1.40;;
34196;SDS011;36594;45.192;5.722;2023-04-01T11:55:25;1.82;;;1.72;;
34196;SDS011;36594;45.192;5.722;2023-04-01T11:58:34;1.80;;;1.57;;
34196;SDS011;36594;45.192;5.722;2023-04-01T12:01:48;2.10;;;1.30;;
34196;SDS011;36594;45.192;5.722;2023-04-01T12:14:16;1.62;;;1.52;;
34196;SDS011;36594;45.192;5.722;2023-04-01T12:18:15;1.53;;;1.30;;
34196;SDS011;36594;45.192;5.722;2023-04-01T12:27:10;1.45;;;1.35;;
34196;SDS011;36594;45.192;5.722;2023-04-01T12:33:04;1.40;;;1.30;;
34196;SDS011;36594;45.192;5.722;2023-04-01T12:39:27;1.82;;;1.62;;
34196;SDS011;36594;45.192;5.722;2023-04-01T12:51:38;1.60;;;1.50;;
34196;SDS011;36594;45.192;5.722;2023-04-01T12:54:48;2.17;;;1.50;;
34196;SDS011;36594;45.192;5.722;2023-04-01T13:07:22;1.70;;;1.60;;
34196;SDS011;36594;45.192;5.722;2023-04-01T13:10:56;1.82;;;1.60;;
34196;SDS011;36594;45.192;5.722;2023-04-01T13:14:23;1.98;;;1.80;;
34196;SDS011;36594;45.192;5.722;2023-04-01T13:16:36;2.70;;;1.80;;
34196;SDS011;36594;45.192;5.722;2023-04-01T13:25:54;1.40;;;1.30;;
34196;SDS011;36594;45.192;5.722;2023-04-01T13:29:04;2.25;;;1.98;;
34196;SDS011;36594;45.192;5.722;2023-04-01T13:38:38;1.87;;;1.65;;
34196;SDS011;36594;45.192;5.722;2023-04-01T13:48:13;1.62;;;1.52;;
34196;SDS011;36594;45.192;5.722;2023-04-01T13:57:20;2.10;;;1.50;;
34196;SDS011;36594;45.192;5.722;2023-04-01T14:03:43;2.47;;;1.50;;
34196;SDS011;36594;45.192;5.722;2023-04-01T14:06:34;2.30;;;1.60;;
34196;SDS011;36594;45.192;5.722;2023-04-01T14:12:38;1.95;;;1.80;;
34196;SDS011;36594;45.192;5.722;2023-04-01T14:15:42;1.62;;;1.52;;
34196;SDS011;36594;45.192;5.722;2023-04-01T14:33:51;1.40;;;1.30;;
34196;SDS011;36594;45.192;5.722;2023-04-01T14:37:01;1.67;;;1.30;;
34196;SDS011;36594;45.192;5.722;2023-04-01T14:40:00;3.12;;;1.30;;
34196;SDS011;36594;45.192;5.722;2023-04-01T14:49:04;1.80;;;1.33;;
34196;SDS011;36594;45.192;5.722;2023-04-01T14:51:53;2.33;;;1.62;;
34196;SDS011;36594;45.192;5.722;2023-04-01T14:54:43;1.35;;;1.35;;
34196;SDS011;36594;45.192;5.722;2023-04-01T14:57:33;1.40;;;1.30;;
34196;SDS011;36594;45.192;5.722;2023-04-01T15:00:22;1.35;;;1.25;;
34196;SDS011;36594;45.192;5.722;2023-04-01T15:03:17;1.80;;;1.50;;
34196;SDS011;36594;45.192;5.722;2023-04-01T15:09:23;1.80;;;1.20;;
34196;SDS011;36594;45.192;5.722;2023-04-01T15:12:30;1.47;;;1.37;;
34196;SDS011;36594;45.192;5.722;2023-04-01T15:25:37;1.40;;;1.30;;
34196;SDS011;36594;45.192;5.722;2023-04-01T15:37:42;1.40;;;1.30;;
34196;SDS011;36594;45.192;5.722;2023-04-01T15:40:30;2.40;;;1.23;;
34196;SDS011;36594;45.192;5.722;2023-04-01T15:43:36;1.60;;;1.37;;
34196;SDS011;36594;45.192;5.722;2023-04-01T15:46:48;1.33;;;1.30;;
34196;SDS011;36594;45.192;5.722;2023-04-01T15:49:46;1.07;;;1.07;;
34196;SDS011;36594;45.192;5.722;2023-04-01T15:52:42;1.30;;;1.30;;
34196;SDS011;36594;45.192;5.722;2023-04-01T15:55:43;1.30;;;1.20;;
34196;SDS011;36594;45.192;5.722;2023-04-01T15:58:40;1.10;;;1.00;;
34196;SDS011;36594;45.192;5.722;2023-04-01T16:01:35;1.20;;;1.20;;
34196;SDS011;36594;45.192;5.722;2023-04-01T16:05:14;1.35;;;1.10;;
34196;SDS011;36594;45.192;5.722;2023-04-01T16:07:43;1.22;;;1.15;;
34196;SDS011;36594;45.192;5.722;2023-04-01T16:10:54;2.10;;;1.00;;
34196;SDS011;36594;45.192;5.722;2023-04-01T16:13:48;1.22;;;1.12;;
34196;SDS011;36594;45.192;5.722;2023-04-01T16:16:51;1.90;;;1.17;;
34196;SDS011;36594;45.192;5.722;2023-04-01T16:23:02;1.37;;;1.27;;
34196;SDS011;36594;45.192;5.722;2023-04-01T16:25:51;1.00;;;1.00;;
34196;SDS011;36594;45.192;5.722;2023-04-01T16:29:08;1.00;;;1.00;;
34196;SDS011;36594;45.192;5.722;2023-04-01T16:32:18;1.62;;;1.15;;
34196;SDS011;36594;45.192;5.722;2023-04-01T16:41:11;1.02;;;1.02;;
34196;SDS011;36594;45.192;5.722;2023-04-01T16:44:14;1.00;;;1.00;;
34196;SDS011;36594;45.192;5.722;2023-04-01T16:47:09;1.43;;;0.80;;
34196;SDS011;36594;45.192;5.722;2023-04-01T16:50:05;1.20;;;1.20;;
34196;SDS011;36594;45.192;5.722;2023-04-01T16:58:58;1.15;;;1.15;;
34196;SDS011;36594;45.192;5.722;2023-04-01T17:02:08;1.30;;;1.20;;
34196;SDS011;36594;45.192;5.722;2023-04-01T17:05:13;1.10;;;1.10;;
34196;SDS011;36594;45.192;5.722;2023-04-01T17:08:06;1.40;;;1.30;;
34196;SDS011;36594;45.192;5.722;2023-04-01T17:20:26;0.80;;;0.80;;
34196;SDS011;36594;45.192;5.722;2023-04-01T17:23:34;0.80;;;0.80;;
34196;SDS011;36594;45.192;5.722;2023-04-01T17:26:42;0.95;;;0.95;;
34196;SDS011;36594;45.192;5.722;2023-04-01T17:29:42;0.88;;;0.88;;
34196;SDS011;36594;45.192;5.722;2023-04-01T17:41:47;1.30;;;0.90;;
34196;SDS011;36594;45.192;5.722;2023-04-01T17:51:13;1.67;;;1.00;;
34196;SDS011;36594;45.192;5.722;2023-04-01T18:04:11;1.17;;;1.10;;
34196;SDS011;36594;45.192;5.722;2023-04-01T18:16:32;0.80;;;0.80;;
34196;SDS011;36594;45.192;5.722;2023-04-01T18:22:48;0.72;;;0.72;;
34196;SDS011;36594;45.192;5.722;2023-04-01T18:25:39;1.98;;;1.00;;
34196;SDS011;36594;45.192;5.722;2023-04-01T18:28:38;1.00;;;1.00;;
34196;SDS011;36594;45.192;5.722;2023-04-01T18:31:33;0.70;;;0.70;;
34196;SDS011;36594;45.192;5.722;2023-04-01T18:34:43;1.05;;;0.90;;
34196;SDS011;36594;45.192;5.722;2023-04-01T18:41:14;0.98;;;0.98;;
34196;SDS011;36594;45.192;5.722;2023-04-01T18:53:24;0.93;;;0.85;;
34196;SDS011;36594;45.192;5.722;2023-04-01T18:59:26;0.93;;;0.93;;
34196;SDS011;36594;45.192;5.722;2023-04-01T19:02:33;1.10;;;0.80;;
34196;SDS011;36594;45.192;5.722;2023-04-01T19:05:29;0.70;;;0.70;;
34196;SDS011;36594;45.192;5.722;2023-04-01T19:08:27;0.90;;;0.72;;
34196;SDS011;36594;45.192;5.722;2023-04-01T19:11:44;0.80;;;0.80;;
34196;SDS011;36594;45.192;5.722;2023-04-01T19:20:32;0.80;;;0.80;;
34196;SDS011;36594;45.192;5.722;2023-04-01T19:38:31;0.75;;;0.75;;
34196;SDS011;36594;45.192;5.722;2023-04-01T19:44:34;0.80;;;0.80;;
34196;SDS011;36594;45.192;5.722;2023-04-01T19:56:44;0.93;;;0.93;;
34196;SDS011;36594;45.192;5.722;2023-04-01T20:02:33;0.50;;;0.50;;
34196;SDS011;36594;45.192;5.722;2023-04-01T20:05:39;0.70;;;0.70;;
34196;SDS011;36594;45.192;5.722;2023-04-01T20:08:40;1.30;;;0.70;;
34196;SDS011;36594;45.192;5.722;2023-04-01T20:11:31;0.70;;;0.70;;
34196;SDS011;36594;45.192;5.722;2023-04-01T20:14:50;0.57;;;0.57;;
34196;SDS011;36594;45.192;5.722;2023-04-01T20:17:38;0.60;;;0.60;;
34196;SDS011;36594;45.192;5.722;2023-04-01T20:20:30;0.70;;;0.70;;
34196;SDS011;36594;45.192;5.722;2023-04-01T20:23:26;0.40;;;0.40;;
34196;SDS011;36594;45.192;5.722;2023-04-01T20:26:13;0.70;;;0.70;;
34196;SDS011;36594;45.192;5.722;2023-04-01T20:44:50;0.50;;;0.50;;
34196;SDS011;36594;45.192;5.722;2023-04-01T20:53:58;0.72;;;0.72;;
34196;SDS011;36594;45.192;5.722;2023-04-01T20:57:00;0.65;;;0.65;;
34196;SDS011;36594;45.192;5.722;2023-04-01T20:59:59;0.60;;;0.60;;
34196;SDS011;36594;45.192;5.722;2023-04-01T21:03:10;0.68;;;0.68;;
34196;SDS011;36594;45.192;5.722;2023-04-01T21:06:15;0.55;;;0.55;;
34196;SDS011;36594;45.192;5.722;2023-04-01T21:12:06;0.60;;;0.60;;
34196;SDS011;36594;45.192;5.722;2023-04-01T21:15:11;0.62;;;0.55;;
34196;SDS011;36594;45.192;5.722;2023-04-01T21:27:44;0.53;;;0.53;;
34196;SDS011;36594;45.192;5.722;2023-04-01T21:30:34;0.50;;;0.50;;
34196;SDS011;36594;45.192;5.722;2023-04-01T21:33:33;0.60;;;0.60;;
34196;SDS011;36594;45.192;5.722;2023-04-01T21:49:24;0.40;;;0.40;;
34196;SDS011;36594;45.192;5.722;2023-04-01T21:52:20;0.53;;;0.53;;
34196;SDS011;36594;45.192;5.722;2023-04-01T21:58:38;0.40;;;0.40;;
34196;SDS011;36594;45.192;5.722;2023-04-01T22:01:37;0.57;;;0.57;;
34196;SDS011;36594;45.192;5.722;2023-04-01T22:10:45;1.27;;;0.62;;
34196;SDS011;36594;45.192;5.722;2023-04-01T22:13:42;0.70;;;0.57;;
34196;SDS011;36594;45.192;5.722;2023-04-01T22:32:08;0.53;;;0.53;;
34196;SDS011;36594;45.192;5.722;2023-04-01T22:38:14;0.47;;;0.47;;
34196;SDS011;36594;45.192;5.722;2023-04-01T22:44:18;0.40;;;0.40;;
34196;SDS011;36594;45.192;5.722;2023-04-01T22:53:37;0.60;;;0.60;;
34196;SDS011;36594;45.192;5.722;2023-04-01T22:57:18;0.68;;;0.68;;
34196;SDS011;36594;45.192;5.722;2023-04-01T22:59:44;0.60;;;0.60;;
34196;SDS011;36594;45.192;5.722;2023-04-01T23:02:46;1.15;;;0.47;;
34196;SDS011;36594;45.192;5.722;2023-04-01T23:05:35;0.70;;;0.60;;
34196;SDS011;36594;45.192;5.722;2023-04-01T23:11:53;0.60;;;0.60;;
34196;SDS011;36594;45.192;5.722;2023-04-01T23:15:00;0.50;;;0.50;;
34196;SDS011;36594;45.192;5.722;2023-04-01T23:24:12;0.70;;;0.70;;
34196;SDS011;36594;45.192;5.722;2023-04-01T23:27:18;1.10;;;0.40;;
34196;SDS011;36594;45.192;5.722;2023-04-01T23:33:29;0.70;;;0.50;;
34196;SDS011;36594;45.192;5.722;2023-04-01T23:36:18;0.47;;;0.47;;
34196;SDS011;36594;45.192;5.722;2023-04-01T23:39:20;1.20;;;0.55;;
34196;SDS011;36594;45.192;5.722;2023-04-01T23:42:05;0.50;;;0.50;;
34196;SDS011;36594;45.192;5.722;2023-04-01T23:44:56;0.40;;;0.40;;
34196;SDS011;36594;45.192;5.722;2023-04-01T23:47:49;1.10;;;0.60;;
34196;SDS011;36594;45.192;5.722;2023-04-01T23:50:38;0.68;;;0.68;;
34196;SDS011;36594;45.192;5.722;2023-04-01T23:53:29;0.80;;;0.50;;
34196;SDS011;36594;45.192;5.722;2023-04-01T23:56:19;0.40;;;0.40;;
34196;SDS011;36594;45.192;5.722;2023-04-01T23:59:14;0.60;;;0.60;;
